createdAt,value
2022-12-19T00:00:41.627Z,998.78
2022-12-19T00:01:41.681Z,998.77
2022-12-19T00:02:41.593Z,998.77
2022-12-19T00:03:41.387Z,998.72
2022-12-19T00:04:41.268Z,998.70
2022-12-19T00:05:41.301Z,998.76
2022-12-19T00:06:43.499Z,998.70
2022-12-19T00:07:40.995Z,998.71
2022-12-19T00:08:40.905Z,998.72
2022-12-19T00:09:40.865Z,998.68
2022-12-19T00:10:40.725Z,998.69
2022-12-19T00:11:40.640Z,998.67
2022-12-19T00:12:40.547Z,998.70
2022-12-19T00:13:41.060Z,998.70
2022-12-19T00:14:40.368Z,998.60
2022-12-19T00:15:40.277Z,998.57
2022-12-19T00:16:40.282Z,998.59
2022-12-19T00:17:40.095Z,998.57
2022-12-19T00:18:40.006Z,998.55
2022-12-19T00:19:39.916Z,998.53
2022-12-19T00:20:39.827Z,998.53
2022-12-19T00:21:39.861Z,998.46
2022-12-19T00:22:39.653Z,998.42
2022-12-19T00:23:39.558Z,998.48
2022-12-19T00:24:39.468Z,998.44
2022-12-19T00:25:40.111Z,998.47
2022-12-19T00:26:39.286Z,998.51
2022-12-19T00:27:39.199Z,998.49
2022-12-19T00:28:39.107Z,998.50
2022-12-19T00:29:39.016Z,998.54
2022-12-19T00:30:38.926Z,998.49
2022-12-19T00:31:38.926Z,998.48
2022-12-19T00:32:38.746Z,998.47
2022-12-19T00:33:42.605Z,998.47
2022-12-19T00:34:38.568Z,998.46
2022-12-19T00:35:38.478Z,998.40
2022-12-19T00:36:38.390Z,998.42
2022-12-19T00:37:49.638Z,998.43
2022-12-19T00:38:38.337Z,998.43
2022-12-19T00:39:38.116Z,998.37
2022-12-19T00:40:38.028Z,998.38
2022-12-19T00:41:39.402Z,998.40
2022-12-19T00:42:37.852Z,998.40
2022-12-19T00:43:37.859Z,998.37
2022-12-19T00:44:37.674Z,998.41
2022-12-19T00:45:37.639Z,998.42
2022-12-19T00:46:37.493Z,998.40
2022-12-19T00:47:37.403Z,998.42
2022-12-19T00:48:37.316Z,998.44
2022-12-19T00:49:37.224Z,998.39
2022-12-19T00:50:37.136Z,998.39
2022-12-19T00:51:37.055Z,998.31
2022-12-19T00:52:36.958Z,998.28
2022-12-19T00:53:36.866Z,998.27
2022-12-19T00:54:36.984Z,998.31
2022-12-19T00:55:36.700Z,998.28
2022-12-19T00:56:36.876Z,998.25
2022-12-19T00:57:36.509Z,998.31
2022-12-19T00:58:36.426Z,998.26
2022-12-19T00:59:36.332Z,998.28
2022-12-19T01:00:36.282Z,998.25
2022-12-19T01:01:36.419Z,998.21
2022-12-19T01:02:36.180Z,998.25
2022-12-19T01:03:35.975Z,998.24
2022-12-19T01:04:41.346Z,998.23
2022-12-19T01:05:35.799Z,998.20
2022-12-19T01:06:35.710Z,998.24
2022-12-19T01:07:35.621Z,998.22
2022-12-19T01:08:35.532Z,998.24
2022-12-19T01:09:35.443Z,998.20
2022-12-19T01:10:35.469Z,998.19
2022-12-19T01:11:35.262Z,998.22
2022-12-19T01:12:35.176Z,998.23
2022-12-19T01:13:35.088Z,998.22
2022-12-19T01:14:35.001Z,998.22
2022-12-19T01:15:34.907Z,998.23
2022-12-19T01:16:35.151Z,998.31
2022-12-19T01:17:35.515Z,998.27
2022-12-19T01:18:34.650Z,998.25
2022-12-19T01:19:37.770Z,998.22
2022-12-19T01:20:34.468Z,998.17
2022-12-19T01:21:34.377Z,998.22
2022-12-19T01:22:34.319Z,998.24
2022-12-19T01:23:34.204Z,998.22
2022-12-19T01:24:34.112Z,998.33
2022-12-19T01:25:34.121Z,998.34
2022-12-19T01:26:34.044Z,998.37
2022-12-19T01:27:33.843Z,998.38
2022-12-19T01:28:33.767Z,998.41
2022-12-19T01:29:35.517Z,998.42
2022-12-19T01:30:33.584Z,998.38
2022-12-19T01:31:33.658Z,998.41
2022-12-19T01:32:33.404Z,998.42
2022-12-19T01:33:33.317Z,998.41
2022-12-19T01:34:33.225Z,998.41
2022-12-19T01:35:33.133Z,998.44
2022-12-19T01:36:33.045Z,998.41
2022-12-19T01:37:32.959Z,998.47
2022-12-19T01:38:32.869Z,998.41
2022-12-19T01:39:32.779Z,998.42
2022-12-19T01:40:32.694Z,998.39
2022-12-19T01:41:32.606Z,998.39
2022-12-19T01:42:32.632Z,998.48
2022-12-19T01:43:32.429Z,998.46
2022-12-19T01:44:32.339Z,998.53
2022-12-19T01:45:34.988Z,998.56
2022-12-19T01:46:32.256Z,998.60
2022-12-19T01:47:32.073Z,998.57
2022-12-19T01:48:31.985Z,998.55
2022-12-19T01:49:31.897Z,998.55
2022-12-19T01:50:31.808Z,998.61
2022-12-19T01:51:31.719Z,998.54
2022-12-19T01:52:31.630Z,998.51
2022-12-19T01:53:31.543Z,998.50
2022-12-19T01:54:31.451Z,998.55
2022-12-19T01:55:31.364Z,998.45
2022-12-19T01:56:31.244Z,998.40
2022-12-19T01:57:31.159Z,998.37
2022-12-19T01:58:31.176Z,998.36
2022-12-19T01:59:30.990Z,998.26
2022-12-19T02:00:30.892Z,998.21
2022-12-19T02:01:30.918Z,998.19
2022-12-19T02:02:30.827Z,998.12
2022-12-19T02:03:30.630Z,998.10
2022-12-19T02:04:32.266Z,998.08
2022-12-19T02:05:30.453Z,998.03
2022-12-19T02:06:30.367Z,998.01
2022-12-19T02:07:30.272Z,997.94
2022-12-19T02:08:30.186Z,997.96
2022-12-19T02:09:30.097Z,997.88
2022-12-19T02:10:30.011Z,997.91
2022-12-19T02:11:29.926Z,997.86
2022-12-19T02:12:29.832Z,997.86
2022-12-19T02:13:29.744Z,997.81
2022-12-19T02:14:29.776Z,997.79
2022-12-19T02:15:29.568Z,997.82
2022-12-19T02:16:30.212Z,997.81
2022-12-19T02:17:29.392Z,997.79
2022-12-19T02:18:29.405Z,997.79
2022-12-19T02:19:29.218Z,997.75
2022-12-19T02:20:29.342Z,997.71
2022-12-19T02:21:29.040Z,997.67
2022-12-19T02:22:28.949Z,997.67
2022-12-19T02:23:28.868Z,997.66
2022-12-19T02:24:28.776Z,997.70
2022-12-19T02:25:28.694Z,997.66
2022-12-19T02:26:28.598Z,997.70
2022-12-19T02:27:28.512Z,997.68
2022-12-19T02:28:28.426Z,997.73
2022-12-19T02:29:28.351Z,997.69
2022-12-19T02:30:28.356Z,997.71
2022-12-19T02:31:28.226Z,997.74
2022-12-19T02:32:28.069Z,997.72
2022-12-19T02:33:27.987Z,997.74
2022-12-19T02:34:27.900Z,997.73
2022-12-19T02:35:27.807Z,997.69
2022-12-19T02:36:27.723Z,997.72
2022-12-19T02:37:27.632Z,997.68
2022-12-19T02:38:27.540Z,997.73
2022-12-19T02:39:27.722Z,997.76
2022-12-19T02:40:27.362Z,997.71
2022-12-19T02:41:27.294Z,997.69
2022-12-19T02:42:27.185Z,997.72
2022-12-19T02:43:27.098Z,997.66
2022-12-19T02:44:27.009Z,997.68
2022-12-19T02:45:28.493Z,997.71
2022-12-19T02:46:26.982Z,997.73
2022-12-19T02:47:26.745Z,997.70
2022-12-19T02:48:26.658Z,997.74
2022-12-19T02:49:31.064Z,997.72
2022-12-19T02:50:26.483Z,997.68
2022-12-19T02:51:26.392Z,997.71
2022-12-19T02:52:26.307Z,997.69
2022-12-19T02:53:26.218Z,997.72
2022-12-19T02:54:26.329Z,997.70
2022-12-19T02:55:26.053Z,997.71
2022-12-19T02:56:26.050Z,997.73
2022-12-19T02:57:27.403Z,997.74
2022-12-19T02:58:25.774Z,997.75
2022-12-19T02:59:25.695Z,997.77
2022-12-19T03:00:25.599Z,997.75
2022-12-19T03:01:25.684Z,997.75
2022-12-19T03:02:25.774Z,997.76
2022-12-19T03:03:25.564Z,997.82
2022-12-19T03:04:25.446Z,997.78
2022-12-19T03:05:25.159Z,997.79
2022-12-19T03:06:25.082Z,997.82
2022-12-19T03:07:24.995Z,997.82
2022-12-19T03:08:24.894Z,997.84
2022-12-19T03:09:24.856Z,997.86
2022-12-19T03:10:24.718Z,997.87
2022-12-19T03:11:24.629Z,997.89
2022-12-19T03:12:24.540Z,997.91
2022-12-19T03:13:24.453Z,997.91
2022-12-19T03:14:24.370Z,997.87
2022-12-19T03:15:24.280Z,997.88
2022-12-19T03:16:24.300Z,997.91
2022-12-19T03:17:24.097Z,997.89
2022-12-19T03:18:24.126Z,997.89
2022-12-19T03:19:23.927Z,997.89
2022-12-19T03:20:23.839Z,997.90
2022-12-19T03:21:23.747Z,997.92
2022-12-19T03:22:23.658Z,997.85
2022-12-19T03:23:23.570Z,997.86
2022-12-19T03:24:23.482Z,997.85
2022-12-19T03:25:23.551Z,997.83
2022-12-19T03:26:23.305Z,997.84
2022-12-19T03:27:23.214Z,997.84
2022-12-19T03:28:23.127Z,997.86
2022-12-19T03:29:23.048Z,997.80
2022-12-19T03:30:22.949Z,997.79
2022-12-19T03:31:22.880Z,997.75
2022-12-19T03:32:22.775Z,997.78
2022-12-19T03:33:22.789Z,997.80
2022-12-19T03:34:22.715Z,997.71
2022-12-19T03:35:22.518Z,997.74
2022-12-19T03:36:22.520Z,997.71
2022-12-19T03:37:22.332Z,997.74
2022-12-19T03:38:22.247Z,997.76
2022-12-19T03:39:22.154Z,997.76
2022-12-19T03:40:22.073Z,997.68
2022-12-19T03:41:21.976Z,997.67
2022-12-19T03:42:21.900Z,997.68
2022-12-19T03:43:21.801Z,997.64
2022-12-19T03:44:21.713Z,997.62
2022-12-19T03:45:21.635Z,997.59
2022-12-19T03:46:21.619Z,997.57
2022-12-19T03:47:21.450Z,997.63
2022-12-19T03:48:21.360Z,997.61
2022-12-19T03:49:21.271Z,997.60
2022-12-19T03:50:21.299Z,997.65
2022-12-19T03:51:21.096Z,997.59
2022-12-19T03:52:21.013Z,997.59
2022-12-19T03:53:20.915Z,997.56
2022-12-19T03:54:20.829Z,997.59
2022-12-19T03:55:20.736Z,997.65
2022-12-19T03:56:20.649Z,997.58
2022-12-19T03:57:20.663Z,997.56
2022-12-19T03:58:20.476Z,997.54
2022-12-19T03:59:20.537Z,997.49
2022-12-19T04:00:20.293Z,997.50
2022-12-19T04:01:20.307Z,997.52
2022-12-19T04:02:20.286Z,997.55
2022-12-19T04:03:20.098Z,997.54
2022-12-19T04:04:19.943Z,997.58
2022-12-19T04:05:19.876Z,997.54
2022-12-19T04:06:19.876Z,997.50
2022-12-19T04:07:19.674Z,997.50
2022-12-19T04:08:19.585Z,997.51
2022-12-19T04:09:22.551Z,997.50
2022-12-19T04:10:19.410Z,997.47
2022-12-19T04:11:19.315Z,997.48
2022-12-19T04:12:19.280Z,997.46
2022-12-19T04:13:19.143Z,997.47
2022-12-19T04:14:19.053Z,997.49
2022-12-19T04:15:18.961Z,997.47
2022-12-19T04:16:18.970Z,997.50
2022-12-19T04:17:18.788Z,997.51
2022-12-19T04:18:18.724Z,997.52
2022-12-19T04:19:18.608Z,997.57
2022-12-19T04:20:18.527Z,997.56
2022-12-19T04:21:18.438Z,997.50
2022-12-19T04:22:18.459Z,997.56
2022-12-19T04:23:18.265Z,997.54
2022-12-19T04:24:18.169Z,997.64
2022-12-19T04:25:18.083Z,997.60
2022-12-19T04:26:17.996Z,997.59
2022-12-19T04:27:17.901Z,997.57
2022-12-19T04:28:17.818Z,997.57
2022-12-19T04:29:17.727Z,997.59
2022-12-19T04:30:17.636Z,997.54
2022-12-19T04:31:17.618Z,997.53
2022-12-19T04:32:17.460Z,997.55
2022-12-19T04:33:17.379Z,997.53
2022-12-19T04:34:17.288Z,997.55
2022-12-19T04:35:17.208Z,997.49
2022-12-19T04:36:17.118Z,997.45
2022-12-19T04:37:17.026Z,997.46
2022-12-19T04:38:17.049Z,997.44
2022-12-19T04:39:16.842Z,997.46
2022-12-19T04:40:16.755Z,997.52
2022-12-19T04:41:16.666Z,997.50
2022-12-19T04:42:16.583Z,997.50
2022-12-19T04:43:16.489Z,997.45
2022-12-19T04:44:16.403Z,997.41
2022-12-19T04:45:16.313Z,997.40
2022-12-19T04:46:16.276Z,997.40
2022-12-19T04:47:16.140Z,997.35
2022-12-19T04:48:16.052Z,997.44
2022-12-19T04:49:15.959Z,997.43
2022-12-19T04:50:15.873Z,997.42
2022-12-19T04:51:15.799Z,997.41
2022-12-19T04:52:15.700Z,997.37
2022-12-19T04:53:15.607Z,997.37
2022-12-19T04:54:15.640Z,997.40
2022-12-19T04:55:15.431Z,997.34
2022-12-19T04:56:15.344Z,997.31
2022-12-19T04:57:15.258Z,997.26
2022-12-19T04:58:20.276Z,997.26
2022-12-19T04:59:15.080Z,997.23
2022-12-19T05:00:15.144Z,997.17
2022-12-19T05:01:14.980Z,997.15
2022-12-19T05:02:14.906Z,997.14
2022-12-19T05:03:14.805Z,997.09
2022-12-19T05:04:14.644Z,997.12
2022-12-19T05:05:14.550Z,997.18
2022-12-19T05:06:14.472Z,997.17
2022-12-19T05:07:14.388Z,997.21
2022-12-19T05:08:14.302Z,997.23
2022-12-19T05:09:14.212Z,997.24
2022-12-19T05:10:14.246Z,997.21
2022-12-19T05:11:19.214Z,997.21
2022-12-19T05:12:13.947Z,997.19
2022-12-19T05:13:13.852Z,997.19
2022-12-19T05:14:13.760Z,997.18
2022-12-19T05:15:13.673Z,997.17
2022-12-19T05:16:13.804Z,997.12
2022-12-19T05:17:13.499Z,997.11
2022-12-19T05:18:13.408Z,997.07
2022-12-19T05:19:13.321Z,997.05
2022-12-19T05:20:13.232Z,997.10
2022-12-19T05:21:13.152Z,997.13
2022-12-19T05:22:13.058Z,997.07
2022-12-19T05:23:17.006Z,997.11
2022-12-19T05:24:12.986Z,997.00
2022-12-19T05:25:12.793Z,997.03
2022-12-19T05:26:12.827Z,997.02
2022-12-19T05:27:12.616Z,997.02
2022-12-19T05:28:12.531Z,997.04
2022-12-19T05:29:12.448Z,997.04
2022-12-19T05:30:12.372Z,997.03
2022-12-19T05:31:12.319Z,997.01
2022-12-19T05:32:12.176Z,997.09
2022-12-19T05:33:12.139Z,997.10
2022-12-19T05:34:12.003Z,997.10
2022-12-19T05:35:11.913Z,997.07
2022-12-19T05:36:11.825Z,997.14
2022-12-19T05:37:11.739Z,997.13
2022-12-19T05:38:11.659Z,997.16
2022-12-19T05:39:11.562Z,997.14
2022-12-19T05:40:11.481Z,997.17
2022-12-19T05:41:11.393Z,997.19
2022-12-19T05:42:12.649Z,997.16
2022-12-19T05:43:11.209Z,997.16
2022-12-19T05:44:11.125Z,997.17
2022-12-19T05:45:11.036Z,997.11
2022-12-19T05:46:10.972Z,997.12
2022-12-19T05:47:10.858Z,997.11
2022-12-19T05:48:10.775Z,997.16
2022-12-19T05:49:10.739Z,997.05
2022-12-19T05:50:10.609Z,997.08
2022-12-19T05:51:10.510Z,997.09
2022-12-19T05:52:10.426Z,997.14
2022-12-19T05:53:10.335Z,997.18
2022-12-19T05:54:10.246Z,997.15
2022-12-19T05:55:10.160Z,997.20
2022-12-19T05:56:10.068Z,997.19
2022-12-19T05:57:09.983Z,997.19
2022-12-19T05:58:10.011Z,997.21
2022-12-19T05:59:09.905Z,997.22
2022-12-19T06:00:09.718Z,997.19
2022-12-19T06:01:09.639Z,997.22
2022-12-19T06:02:09.653Z,997.27
2022-12-19T06:03:09.670Z,997.31
2022-12-19T06:04:09.368Z,997.26
2022-12-19T06:05:09.336Z,997.33
2022-12-19T06:06:09.189Z,997.37
2022-12-19T06:07:09.109Z,997.34
2022-12-19T06:08:09.019Z,997.38
2022-12-19T06:09:08.929Z,997.38
2022-12-19T06:10:08.841Z,997.35
2022-12-19T06:11:08.754Z,997.31
2022-12-19T06:12:08.665Z,997.27
2022-12-19T06:13:08.626Z,997.24
2022-12-19T06:14:08.607Z,997.20
2022-12-19T06:15:08.413Z,997.17
2022-12-19T06:16:08.342Z,997.19
2022-12-19T06:17:08.229Z,997.13
2022-12-19T06:18:08.140Z,997.15
2022-12-19T06:19:08.048Z,997.13
2022-12-19T06:20:07.965Z,997.10
2022-12-19T06:21:07.875Z,997.13
2022-12-19T06:22:07.786Z,997.13
2022-12-19T06:23:07.699Z,997.08
2022-12-19T06:24:07.612Z,997.06
2022-12-19T06:25:07.524Z,997.11
2022-12-19T06:26:07.443Z,997.07
2022-12-19T06:27:07.349Z,997.06
2022-12-19T06:28:07.263Z,997.09
2022-12-19T06:29:07.177Z,997.08
2022-12-19T06:30:07.292Z,997.04
2022-12-19T06:31:07.083Z,997.08
2022-12-19T06:32:06.914Z,997.11
2022-12-19T06:33:06.825Z,997.12
2022-12-19T06:34:06.739Z,997.19
2022-12-19T06:35:06.674Z,997.14
2022-12-19T06:36:06.584Z,997.15
2022-12-19T06:37:08.348Z,997.11
2022-12-19T06:38:06.391Z,997.18
2022-12-19T06:39:06.307Z,997.20
2022-12-19T06:40:06.220Z,997.20
2022-12-19T06:41:06.129Z,997.19
2022-12-19T06:42:06.042Z,997.20
2022-12-19T06:43:05.952Z,997.18
2022-12-19T06:44:05.877Z,997.17
2022-12-19T06:45:05.780Z,997.19
2022-12-19T06:46:05.890Z,997.26
2022-12-19T06:47:05.600Z,997.34
2022-12-19T06:48:05.529Z,997.32
2022-12-19T06:49:05.429Z,997.33
2022-12-19T06:50:05.387Z,997.34
2022-12-19T06:51:05.250Z,997.33
2022-12-19T06:52:09.155Z,997.31
2022-12-19T06:53:05.126Z,997.29
2022-12-19T06:54:04.988Z,997.26
2022-12-19T06:55:04.900Z,997.26
2022-12-19T06:56:04.816Z,997.22
2022-12-19T06:57:04.727Z,997.24
2022-12-19T06:58:04.641Z,997.25
2022-12-19T06:59:04.700Z,997.20
2022-12-19T07:00:04.466Z,997.21
2022-12-19T07:01:04.432Z,997.14
2022-12-19T07:02:04.494Z,997.15
2022-12-19T07:03:04.311Z,997.18
2022-12-19T07:04:04.119Z,997.16
2022-12-19T07:05:04.044Z,997.20
2022-12-19T07:06:03.943Z,997.21
2022-12-19T07:07:03.853Z,997.20
2022-12-19T07:08:03.772Z,997.26
2022-12-19T07:09:03.678Z,997.27
2022-12-19T07:10:03.594Z,997.29
2022-12-19T07:11:03.567Z,997.23
2022-12-19T07:12:03.427Z,997.25
2022-12-19T07:13:03.335Z,997.21
2022-12-19T07:14:03.244Z,997.23
2022-12-19T07:15:03.158Z,997.20
2022-12-19T07:16:03.135Z,997.21
2022-12-19T07:17:02.987Z,997.19
2022-12-19T07:18:03.023Z,997.18
2022-12-19T07:19:02.808Z,997.22
2022-12-19T07:20:02.736Z,997.26
2022-12-19T07:21:02.639Z,997.25
2022-12-19T07:22:02.546Z,997.29
2022-12-19T07:23:02.458Z,997.28
2022-12-19T07:24:02.372Z,997.26
2022-12-19T07:25:02.305Z,997.23
2022-12-19T07:26:02.198Z,997.19
2022-12-19T07:27:02.108Z,997.15
2022-12-19T07:28:02.026Z,997.13
2022-12-19T07:29:01.935Z,997.18
2022-12-19T07:30:01.850Z,997.17
2022-12-19T07:31:01.764Z,997.20
2022-12-19T07:32:01.746Z,997.16
2022-12-19T07:33:01.592Z,997.18
2022-12-19T07:34:01.633Z,997.20
2022-12-19T07:35:01.425Z,997.16
2022-12-19T07:36:01.428Z,997.16
2022-12-19T07:37:01.240Z,997.13
2022-12-19T07:38:01.152Z,997.19
2022-12-19T07:39:01.068Z,997.24
2022-12-19T07:40:00.988Z,997.24
2022-12-19T07:41:00.899Z,997.26
2022-12-19T07:42:00.807Z,997.32
2022-12-19T07:43:00.723Z,997.27
2022-12-19T07:44:00.634Z,997.19
2022-12-19T07:45:00.569Z,997.15
2022-12-19T07:46:00.493Z,997.16
2022-12-19T07:47:00.373Z,997.13
2022-12-19T07:48:00.285Z,997.15
2022-12-19T07:49:00.228Z,997.12
2022-12-19T07:50:00.233Z,997.17
2022-12-19T07:51:00.034Z,997.13
2022-12-19T07:51:59.939Z,997.16
2022-12-19T07:52:59.864Z,997.14
2022-12-19T07:53:59.912Z,997.18
2022-12-19T07:54:59.687Z,997.21
2022-12-19T07:55:59.594Z,997.22
2022-12-19T07:56:59.509Z,997.21
2022-12-19T07:57:59.426Z,997.20
2022-12-19T07:58:59.334Z,997.20
2022-12-19T07:59:59.245Z,997.16
2022-12-19T08:00:59.218Z,997.17
2022-12-19T08:01:59.406Z,997.23
2022-12-19T08:02:59.220Z,997.24
2022-12-19T08:03:59.001Z,997.23
2022-12-19T08:04:58.814Z,997.23
2022-12-19T08:05:58.843Z,997.25
2022-12-19T08:06:58.642Z,997.26
2022-12-19T08:07:58.554Z,997.22
2022-12-19T08:08:58.468Z,997.25
2022-12-19T08:09:58.378Z,997.26
2022-12-19T08:10:58.292Z,997.21
2022-12-19T08:11:58.208Z,997.24
2022-12-19T08:12:58.123Z,997.26
2022-12-19T08:13:58.030Z,997.21
2022-12-19T08:14:57.949Z,997.26
2022-12-19T08:15:57.859Z,997.25
2022-12-19T08:17:57.797Z,997.28
2022-12-19T08:18:57.607Z,997.30
2022-12-19T08:19:57.513Z,997.31
2022-12-19T08:20:57.432Z,997.24
2022-12-19T08:21:57.458Z,997.28
2022-12-19T08:22:57.257Z,997.27
2022-12-19T08:23:57.172Z,997.26
2022-12-19T08:24:57.089Z,997.26
2022-12-19T08:25:56.997Z,997.28
2022-12-19T08:26:56.924Z,997.29
2022-12-19T08:27:56.827Z,997.25
2022-12-19T08:28:56.761Z,997.21
2022-12-19T08:29:56.657Z,997.22
2022-12-19T08:30:56.642Z,997.16
2022-12-19T08:31:56.487Z,997.12
2022-12-19T08:32:56.397Z,997.07
2022-12-19T08:33:56.306Z,997.05
2022-12-19T08:34:56.225Z,996.97
2022-12-19T08:35:56.138Z,997.01
2022-12-19T08:36:56.051Z,997.00
2022-12-19T08:37:56.082Z,997.09
2022-12-19T08:38:55.882Z,997.07
2022-12-19T08:39:55.791Z,997.15
2022-12-19T08:40:55.708Z,997.11
2022-12-19T08:41:55.624Z,997.18
2022-12-19T08:42:55.535Z,997.16
2022-12-19T08:43:55.456Z,997.18
2022-12-19T08:44:55.362Z,997.19
2022-12-19T08:45:55.345Z,997.21
2022-12-19T08:46:55.193Z,997.19
2022-12-19T08:47:55.104Z,997.09
2022-12-19T08:48:55.020Z,997.09
2022-12-19T08:49:54.932Z,997.07
2022-12-19T08:50:54.848Z,997.01
2022-12-19T08:51:54.761Z,996.99
2022-12-19T08:52:54.678Z,997.03
2022-12-19T08:53:54.707Z,996.99
2022-12-19T08:54:54.513Z,996.97
2022-12-19T08:55:54.417Z,996.97
2022-12-19T08:56:54.354Z,996.93
2022-12-19T08:57:54.247Z,996.88
2022-12-19T08:58:54.170Z,996.88
2022-12-19T08:59:54.078Z,996.91
2022-12-19T09:00:57.580Z,996.87
2022-12-19T09:01:54.091Z,996.84
2022-12-19T09:02:54.014Z,996.84
2022-12-19T09:04:26.500Z,996.83
2022-12-19T09:06:00.193Z,996.84
2022-12-19T09:06:03.278Z,996.85
2022-12-19T09:06:53.517Z,996.84
2022-12-19T09:07:53.388Z,996.83
2022-12-19T09:08:54.613Z,996.84
2022-12-19T09:09:54.043Z,996.86
2022-12-19T09:10:53.138Z,996.89
2022-12-19T09:11:53.058Z,996.85
2022-12-19T09:12:57.971Z,996.89
2022-12-19T09:13:52.929Z,996.85
2022-12-19T09:14:52.796Z,996.90
2022-12-19T09:15:52.704Z,996.89
2022-12-19T09:16:52.710Z,996.89
2022-12-19T09:17:52.533Z,996.87
2022-12-19T09:18:52.447Z,996.85
2022-12-19T09:19:52.365Z,996.84
2022-12-19T09:20:52.287Z,996.88
2022-12-19T09:21:52.190Z,996.88
2022-12-19T09:22:52.110Z,996.90
2022-12-19T09:23:52.021Z,996.86
2022-12-19T09:24:51.934Z,996.89
2022-12-19T09:25:51.967Z,996.87
2022-12-19T09:26:51.771Z,996.90
2022-12-19T09:28:25.603Z,996.90
2022-12-19T09:28:51.603Z,996.95
2022-12-19T09:29:51.511Z,996.91
2022-12-19T09:30:51.474Z,996.91
2022-12-19T09:31:56.272Z,996.96
2022-12-19T09:32:51.254Z,996.94
2022-12-19T09:33:51.186Z,996.88
2022-12-19T09:34:51.083Z,996.93
2022-12-19T09:35:50.995Z,996.91
2022-12-19T09:36:50.917Z,996.94
2022-12-19T09:37:55.068Z,996.94
2022-12-19T09:38:50.786Z,996.95
2022-12-19T09:39:50.655Z,996.99
2022-12-19T09:40:50.569Z,997.00
2022-12-19T09:41:50.630Z,997.07
2022-12-19T09:42:50.398Z,997.09
2022-12-19T09:43:50.310Z,997.07
2022-12-19T09:44:50.227Z,997.03
2022-12-19T09:45:50.356Z,997.04
2022-12-19T09:46:50.840Z,997.05
2022-12-19T09:47:49.996Z,997.03
2022-12-19T09:48:54.586Z,997.01
2022-12-19T09:49:49.801Z,996.99
2022-12-19T09:50:49.714Z,996.99
2022-12-19T09:51:49.629Z,996.98
2022-12-19T09:52:49.543Z,996.97
2022-12-19T09:53:54.380Z,996.96
2022-12-19T09:54:49.369Z,997.03
2022-12-19T09:55:49.291Z,997.03
2022-12-19T09:56:49.200Z,997.07
2022-12-19T09:57:49.227Z,997.04
2022-12-19T09:58:49.030Z,997.07
2022-12-19T09:59:50.225Z,997.07
2022-12-19T10:00:48.878Z,997.10
2022-12-19T10:01:48.971Z,997.14
2022-12-19T10:02:48.975Z,997.12
2022-12-19T10:03:48.634Z,997.11
2022-12-19T10:04:48.517Z,997.13
2022-12-19T10:07:06.872Z,997.13
2022-12-19T10:07:22.150Z,997.15
2022-12-19T10:08:07.641Z,997.17
2022-12-19T10:09:20.674Z,997.19
2022-12-19T10:12:35.722Z,997.17
2022-12-19T10:12:38.707Z,997.08
2022-12-19T10:12:39.116Z,997.10
2022-12-19T10:12:51.471Z,997.09
2022-12-19T10:13:47.867Z,997.08
2022-12-19T10:14:47.663Z,997.05
2022-12-19T10:15:47.593Z,997.03
2022-12-19T10:17:08.494Z,996.98
2022-12-19T10:17:47.405Z,996.97
2022-12-19T10:18:51.136Z,996.95
2022-12-19T10:19:47.424Z,996.97
2022-12-19T10:20:47.161Z,996.93
2022-12-19T10:22:47.013Z,996.89
2022-12-19T10:23:46.897Z,996.89
2022-12-19T10:24:59.559Z,996.88
2022-12-19T10:25:46.873Z,996.89
2022-12-19T10:26:46.646Z,996.86
2022-12-19T10:28:00.193Z,996.87
2022-12-19T10:28:46.478Z,996.87
2022-12-19T10:29:46.648Z,996.84
2022-12-19T10:30:46.367Z,996.80
2022-12-19T10:31:46.324Z,996.81
2022-12-19T10:32:46.278Z,996.90
2022-12-19T10:33:46.045Z,996.87
2022-12-19T10:34:45.969Z,996.80
2022-12-19T10:35:45.893Z,996.81
2022-12-19T10:37:49.712Z,996.79
2022-12-19T10:38:51.346Z,996.73
2022-12-19T10:39:45.536Z,996.72
2022-12-19T10:40:45.449Z,996.70
2022-12-19T10:41:45.387Z,996.67
2022-12-19T10:42:45.320Z,996.64
2022-12-19T10:43:45.633Z,996.62
2022-12-19T10:44:45.105Z,996.65
2022-12-19T10:45:45.476Z,996.68
2022-12-19T10:46:45.012Z,996.66
2022-12-19T10:47:44.854Z,996.68
2022-12-19T10:48:45.174Z,996.70
2022-12-19T10:49:45.134Z,996.72
2022-12-19T10:50:44.595Z,996.70
2022-12-19T10:51:44.534Z,996.68
2022-12-19T10:52:44.471Z,996.66
2022-12-19T10:53:44.347Z,996.68
2022-12-19T10:54:44.314Z,996.64
2022-12-19T10:55:44.175Z,996.65
2022-12-19T10:56:44.096Z,996.63
2022-12-19T10:57:44.005Z,996.63
2022-12-19T10:58:43.952Z,996.62
2022-12-19T10:59:43.831Z,996.56
2022-12-19T11:00:43.748Z,996.52
2022-12-19T11:01:43.899Z,996.52
2022-12-19T11:02:44.863Z,996.51
2022-12-19T11:03:43.628Z,996.52
2022-12-19T11:04:43.476Z,996.51
2022-12-19T11:05:43.323Z,996.47
2022-12-19T11:06:43.238Z,996.43
2022-12-19T11:07:43.168Z,996.39
2022-12-19T11:08:43.074Z,996.36
2022-12-19T11:09:46.013Z,996.33
2022-12-19T11:12:22.299Z,996.30
2022-12-19T11:14:47.522Z,996.29
2022-12-19T11:17:54.283Z,996.28
2022-12-19T11:18:07.588Z,996.25
2022-12-19T11:18:32.137Z,996.23
2022-12-19T11:22:04.913Z,996.25
2022-12-19T11:23:49.548Z,996.25
2022-12-19T11:25:54.864Z,996.23
2022-12-19T11:26:19.248Z,996.27
2022-12-19T11:26:46.333Z,996.30
2022-12-19T11:29:33.696Z,996.15
2022-12-19T11:29:38.526Z,996.16
2022-12-19T11:29:40.286Z,996.12
2022-12-19T11:29:44.239Z,996.23
2022-12-19T11:30:06.587Z,996.14
2022-12-19T11:30:41.127Z,996.14
2022-12-19T11:30:42.813Z,996.20
2022-12-19T11:30:47.441Z,996.26
2022-12-19T11:30:48.668Z,996.29
2022-12-19T11:32:43.532Z,996.32
2022-12-19T11:33:41.152Z,996.33
2022-12-19T11:34:40.876Z,996.33
2022-12-19T11:35:40.777Z,996.23
2022-12-19T11:36:40.713Z,996.23
2022-12-19T11:37:40.604Z,996.29
2022-12-19T11:38:40.522Z,996.29
2022-12-19T11:39:40.436Z,996.26
2022-12-19T11:40:44.934Z,996.23
2022-12-19T11:41:40.267Z,996.27
2022-12-19T11:42:40.181Z,996.25
2022-12-19T11:43:45.405Z,996.21
2022-12-19T11:44:40.011Z,996.21
2022-12-19T11:45:39.924Z,996.20
2022-12-19T11:46:39.838Z,996.18
2022-12-19T11:47:39.755Z,996.17
2022-12-19T11:48:39.712Z,996.14
2022-12-19T11:49:39.685Z,996.15
2022-12-19T11:50:39.510Z,996.15
2022-12-19T11:51:39.419Z,996.07
2022-12-19T11:53:03.905Z,996.05
2022-12-19T11:53:39.259Z,996.02
2022-12-19T11:54:39.153Z,995.98
2022-12-19T11:55:39.071Z,995.97
2022-12-19T11:56:38.982Z,995.96
2022-12-19T11:57:38.899Z,995.96
2022-12-19T11:58:38.813Z,995.94
2022-12-19T11:59:38.769Z,995.93
2022-12-19T12:00:38.641Z,995.98
2022-12-19T12:01:38.671Z,996.01
2022-12-19T12:02:38.468Z,996.01
2022-12-19T12:03:38.430Z,996.05
2022-12-19T12:04:38.378Z,996.05
2022-12-19T12:05:38.350Z,995.99
2022-12-19T12:06:45.306Z,995.98
2022-12-19T12:08:45.607Z,995.93
2022-12-19T12:11:00.352Z,995.86
2022-12-19T12:13:55.254Z,995.89
2022-12-19T12:15:07.396Z,995.81
2022-12-19T12:16:50.147Z,995.84
2022-12-19T12:18:43.247Z,995.84
2022-12-19T12:21:18.480Z,995.84
2022-12-19T12:28:37.196Z,995.85
2022-12-19T12:28:47.950Z,995.90
2022-12-19T12:29:56.694Z,995.83
2022-12-19T12:30:59.799Z,995.93
2022-12-19T12:31:06.800Z,995.92
2022-12-19T12:31:09.512Z,995.94
2022-12-19T12:31:09.795Z,995.75
2022-12-19T12:31:13.255Z,995.99
2022-12-19T12:31:18.172Z,995.94
2022-12-19T12:31:30.604Z,995.91
2022-12-19T12:31:39.131Z,995.76
2022-12-19T12:31:41.319Z,995.86
2022-12-19T12:31:42.784Z,995.90
2022-12-19T12:31:46.050Z,995.80
2022-12-19T12:32:02.768Z,995.79
2022-12-19T12:32:04.670Z,995.78
2022-12-19T12:32:05.396Z,995.74
2022-12-19T12:35:30.673Z,995.72
2022-12-19T12:35:48.610Z,995.71
2022-12-19T12:35:54.321Z,995.67